createdAt,value
2018-02-07T00:01:24.495Z,9.10
2018-02-07T00:03:52.427Z,12.73
2018-02-07T00:06:20.709Z,9.40
2018-02-07T00:08:48.234Z,9.40
2018-02-07T00:11:15.745Z,9.50
2018-02-07T00:13:44.043Z,9.73
2018-02-07T00:16:11.596Z,8.87
2018-02-07T00:18:39.539Z,9.43
2018-02-07T00:21:07.807Z,9.53
2018-02-07T00:23:35.706Z,8.27
2018-02-07T00:26:03.228Z,9.93
2018-02-07T00:28:31.129Z,11.90
2018-02-07T00:30:58.650Z,8.23
2018-02-07T00:33:26.552Z,10.53
2018-02-07T00:35:54.080Z,9.00
2018-02-07T00:38:21.767Z,9.50
2018-02-07T00:40:49.290Z,8.63
2018-02-07T00:43:17.570Z,9.37
2018-02-07T00:45:45.484Z,8.97
2018-02-07T00:48:13.079Z,10.90
2018-02-07T00:50:41.068Z,9.20
2018-02-07T00:53:08.570Z,9.57
2018-02-07T00:55:36.105Z,10.03
2018-02-07T00:58:03.622Z,10.23
2018-02-07T01:00:31.146Z,12.90
2018-02-07T01:02:58.667Z,9.83
2018-02-07T01:05:26.234Z,11.13
2018-02-07T01:07:53.749Z,9.30
2018-02-07T01:10:21.651Z,10.70
2018-02-07T01:12:49.562Z,9.33
2018-02-07T01:15:18.202Z,11.23
2018-02-07T01:17:46.114Z,8.83
2018-02-07T01:20:13.802Z,10.27
2018-02-07T01:22:41.333Z,14.00
2018-02-07T01:25:08.847Z,8.87
2018-02-07T01:27:36.776Z,11.77
2018-02-07T01:30:04.274Z,8.90
2018-02-07T01:32:31.815Z,10.87
2018-02-07T01:34:59.324Z,10.30
2018-02-07T01:37:27.254Z,10.17
2018-02-07T01:39:55.158Z,10.93
2018-02-07T01:42:22.690Z,10.37
2018-02-07T01:44:50.588Z,8.13
2018-02-07T01:47:18.148Z,11.37
2018-02-07T01:49:46.051Z,8.93
2018-02-07T01:52:13.576Z,10.63
2018-02-07T01:54:41.110Z,10.90
2018-02-07T01:57:09.018Z,11.53
2018-02-07T01:59:36.559Z,11.10
2018-02-07T02:02:04.064Z,11.17
2018-02-07T02:04:32.054Z,12.70
2018-02-07T02:06:59.953Z,13.97
2018-02-07T02:09:27.484Z,15.20
2018-02-07T02:11:54.990Z,14.87
2018-02-07T02:14:22.528Z,15.60
2018-02-07T02:16:50.030Z,15.53
2018-02-07T02:19:17.558Z,14.50
2018-02-07T02:21:45.074Z,15.40
2018-02-07T02:24:13.007Z,18.87
2018-02-07T02:26:41.287Z,19.70
2018-02-07T02:29:09.218Z,15.40
2018-02-07T02:31:36.734Z,13.97
2018-02-07T02:34:04.269Z,20.37
2018-02-07T02:36:39.547Z,16.43
2018-02-07T02:39:07.494Z,16.50
2018-02-07T02:41:35.010Z,18.40
2018-02-07T02:44:02.942Z,14.77
2018-02-07T02:46:30.464Z,17.73
2018-02-07T02:48:58.401Z,15.57
2018-02-07T02:51:26.685Z,16.37
2018-02-07T02:53:54.586Z,13.97
2018-02-07T02:56:22.526Z,19.20
2018-02-07T02:58:50.451Z,16.93
2018-02-07T03:01:18.382Z,16.77
2018-02-07T03:03:45.882Z,15.63
2018-02-07T03:06:13.414Z,16.90
2018-02-07T03:08:41.337Z,17.13
2018-02-07T03:11:09.273Z,19.77
2018-02-07T03:13:36.778Z,15.87
2018-02-07T03:16:04.312Z,19.50
2018-02-07T03:18:32.229Z,14.03
2018-02-07T03:20:59.779Z,16.03
2018-02-07T03:23:27.283Z,13.63
2018-02-07T03:25:55.205Z,14.03
2018-02-07T03:28:22.714Z,13.03
2018-02-07T03:30:50.230Z,13.53
2018-02-07T03:33:18.142Z,15.53
2018-02-07T03:35:46.040Z,13.13
2018-02-07T03:38:14.002Z,14.20
2018-02-07T03:40:41.536Z,13.67
2018-02-07T03:43:09.067Z,13.23
2018-02-07T03:45:36.578Z,13.80
2018-02-07T03:48:04.502Z,14.43
2018-02-07T03:50:32.407Z,15.27
2018-02-07T03:52:59.942Z,17.47
2018-02-07T03:55:27.461Z,16.17
2018-02-07T03:57:55.389Z,19.83
2018-02-07T04:00:22.898Z,14.63
2018-02-07T04:02:50.950Z,15.23
2018-02-07T04:05:18.859Z,15.10
2018-02-07T04:07:46.414Z,15.50
2018-02-07T04:10:13.918Z,15.80
2018-02-07T04:12:41.831Z,14.80
2018-02-07T04:15:09.378Z,16.90
2018-02-07T04:17:36.894Z,19.47
2018-02-07T04:20:04.829Z,14.63
2018-02-07T04:22:32.738Z,18.90
2018-02-07T04:25:00.268Z,17.00
2018-02-07T04:27:27.789Z,17.27
2018-02-07T04:29:56.094Z,16.77
2018-02-07T04:32:23.598Z,20.20
2018-02-07T04:34:51.185Z,16.03
2018-02-07T04:37:18.668Z,20.03
2018-02-07T04:39:46.203Z,14.73
2018-02-07T04:42:14.099Z,12.80
2018-02-07T04:44:41.627Z,12.03
2018-02-07T04:47:09.522Z,13.47
2018-02-07T04:49:37.458Z,11.50
2018-02-07T04:52:05.398Z,15.67
2018-02-07T04:54:32.939Z,14.63
2018-02-07T04:57:00.475Z,15.97
2018-02-07T04:59:28.013Z,16.10
2018-02-07T05:01:56.286Z,13.33
2018-02-07T05:04:24.218Z,12.50
2018-02-07T05:06:51.735Z,11.80
2018-02-07T05:09:19.267Z,15.43
2018-02-07T05:11:46.870Z,12.97
2018-02-07T05:14:14.790Z,16.63
2018-02-07T05:16:42.296Z,14.97
2018-02-07T05:19:11.186Z,13.30
2018-02-07T05:21:38.707Z,18.27
2018-02-07T05:24:06.216Z,14.33
2018-02-07T05:26:34.147Z,18.83
2018-02-07T05:29:01.672Z,15.47
2018-02-07T05:31:29.218Z,16.57
2018-02-07T05:33:57.122Z,14.33
2018-02-07T05:36:24.651Z,14.07
2018-02-07T05:38:52.550Z,17.50
2018-02-07T05:41:20.474Z,13.43
2018-02-07T05:43:47.998Z,17.50
2018-02-07T05:46:15.534Z,16.43
2018-02-07T05:48:43.041Z,13.83
2018-02-07T05:51:10.569Z,13.40
2018-02-07T05:53:38.246Z,13.33
2018-02-07T05:56:05.775Z,15.43
2018-02-07T05:58:33.688Z,13.83
2018-02-07T06:01:01.278Z,13.97
2018-02-07T06:03:29.525Z,14.63
2018-02-07T06:05:57.102Z,13.03
2018-02-07T06:08:25.491Z,13.17
2018-02-07T06:10:53.035Z,12.77
2018-02-07T06:13:20.733Z,12.30
2018-02-07T06:15:48.302Z,11.70
2018-02-07T06:18:15.819Z,11.17
2018-02-07T06:20:43.330Z,12.23
2018-02-07T06:23:10.889Z,15.57
2018-02-07T06:25:38.788Z,12.57
2018-02-07T06:28:06.705Z,15.40
2018-02-07T06:30:34.237Z,13.73
2018-02-07T06:33:01.788Z,13.10
2018-02-07T06:35:29.318Z,13.93
2018-02-07T06:37:57.247Z,15.23
2018-02-07T06:40:25.138Z,13.53
2018-02-07T06:42:53.422Z,14.40
2018-02-07T06:45:21.333Z,12.47
2018-02-07T06:47:48.996Z,15.83
2018-02-07T06:50:16.893Z,13.93
2018-02-07T06:52:44.811Z,13.47
2018-02-07T06:55:12.783Z,14.43
2018-02-07T06:57:40.698Z,15.60
2018-02-07T07:00:08.220Z,15.40
2018-02-07T07:02:35.743Z,11.80
2018-02-07T07:05:03.272Z,14.67
2018-02-07T07:07:30.806Z,14.53
2018-02-07T07:09:58.699Z,12.40
2018-02-07T07:12:26.271Z,15.60
2018-02-07T07:14:54.691Z,13.43
2018-02-07T07:17:23.563Z,13.23
2018-02-07T07:19:51.494Z,14.83
2018-02-07T07:22:19.774Z,15.57
2018-02-07T07:24:47.330Z,12.67
2018-02-07T07:27:15.230Z,14.33
2018-02-07T07:29:42.762Z,14.30
2018-02-07T07:32:10.307Z,14.73
2018-02-07T07:34:38.254Z,14.27
2018-02-07T07:37:06.534Z,14.97
2018-02-07T07:39:34.456Z,15.93
2018-02-07T07:42:02.726Z,13.40
2018-02-07T07:44:30.706Z,14.00
2018-02-07T07:46:58.226Z,12.43
2018-02-07T07:49:25.790Z,12.50
2018-02-07T07:51:53.699Z,11.50
2018-02-07T07:54:21.610Z,14.53
2018-02-07T07:56:49.895Z,14.43
2018-02-07T07:59:17.794Z,15.80
2018-02-07T08:01:45.318Z,14.17
2018-02-07T08:04:12.823Z,16.33
2018-02-07T08:06:40.763Z,14.00
2018-02-07T08:09:08.675Z,14.27
2018-02-07T08:11:37.338Z,13.77
2018-02-07T08:14:04.842Z,14.40
2018-02-07T08:16:32.377Z,15.47
2018-02-07T08:19:00.287Z,14.53
2018-02-07T08:21:28.230Z,16.70
2018-02-07T08:23:55.875Z,12.70
2018-02-07T08:26:23.406Z,15.03
2018-02-07T08:28:50.981Z,15.63
2018-02-07T08:31:18.502Z,16.17
2018-02-07T08:33:46.500Z,17.60
2018-02-07T08:36:14.033Z,15.57
2018-02-07T08:38:41.938Z,17.70
2018-02-07T08:41:09.834Z,14.67
2018-02-07T08:43:37.394Z,13.33
2018-02-07T08:46:04.911Z,12.60
2018-02-07T08:48:32.439Z,12.30
2018-02-07T08:51:00.335Z,12.23
2018-02-07T08:53:27.980Z,15.57
2018-02-07T08:55:55.889Z,16.33
2018-02-07T08:58:23.423Z,14.27
2018-02-07T09:00:51.330Z,16.60
2018-02-07T09:03:18.885Z,13.63
2018-02-07T09:05:46.779Z,14.33
2018-02-07T09:08:15.075Z,14.70
2018-02-07T09:10:42.603Z,13.33
2018-02-07T09:13:10.518Z,14.40
2018-02-07T09:15:38.018Z,18.37
2018-02-07T09:18:05.543Z,15.00
2018-02-07T09:20:33.501Z,16.93
2018-02-07T09:23:01.390Z,15.03
2018-02-07T09:25:29.286Z,16.07
2018-02-07T09:27:57.558Z,16.33
2018-02-07T09:30:25.078Z,16.27
2018-02-07T09:32:52.578Z,16.77
2018-02-07T09:35:20.098Z,17.83
2018-02-07T09:37:48.375Z,17.93
2018-02-07T09:40:15.908Z,16.93
2018-02-07T09:42:43.420Z,19.27
2018-02-07T09:45:10.942Z,16.23
2018-02-07T09:47:38.451Z,19.33
2018-02-07T09:50:05.972Z,16.77
2018-02-07T09:52:33.878Z,15.63
2018-02-07T09:55:01.419Z,15.80
2018-02-07T09:57:29.707Z,19.37
2018-02-07T09:59:57.632Z,18.53
2018-02-07T10:02:25.543Z,17.80
2018-02-07T10:04:53.060Z,21.33
2018-02-07T10:07:21.366Z,16.37
2018-02-07T10:09:49.269Z,21.07
2018-02-07T10:12:16.806Z,20.60
2018-02-07T10:14:44.706Z,19.63
2018-02-07T10:17:12.679Z,21.10
2018-02-07T10:19:40.200Z,18.03
2018-02-07T10:22:08.135Z,19.60
2018-02-07T10:24:36.035Z,17.87
2018-02-07T10:27:03.995Z,20.17
2018-02-07T10:29:31.903Z,18.07
2018-02-07T10:31:59.430Z,22.40
2018-02-07T10:34:26.954Z,19.03
2018-02-07T10:36:54.886Z,19.00
2018-02-07T10:39:22.504Z,14.83
2018-02-07T10:41:50.143Z,16.77
2018-02-07T10:44:18.051Z,21.07
2018-02-07T10:46:45.574Z,19.67
2018-02-07T10:49:13.514Z,18.23
2018-02-07T10:51:41.418Z,17.73
2018-02-07T10:54:09.353Z,18.93
2018-02-07T10:56:36.870Z,16.77
2018-02-07T10:59:04.624Z,19.20
2018-02-07T11:01:32.128Z,15.90
2018-02-07T11:03:59.658Z,15.80
2018-02-07T11:06:27.560Z,16.90
2018-02-07T11:08:55.478Z,19.63
2018-02-07T11:11:23.762Z,16.07
2018-02-07T11:13:51.691Z,22.07
2018-02-07T11:16:19.194Z,18.97
2018-02-07T11:18:47.117Z,18.83
2018-02-07T11:21:15.031Z,22.20
2018-02-07T11:23:42.983Z,20.63
2018-02-07T11:26:10.893Z,20.33
2018-02-07T11:28:38.798Z,16.53
2018-02-07T11:31:06.722Z,23.60
2018-02-07T11:33:34.630Z,20.30
2018-02-07T11:36:02.154Z,22.63
2018-02-07T11:38:29.671Z,16.97
2018-02-07T11:40:57.598Z,21.83
2018-02-07T11:43:25.107Z,19.30
2018-02-07T11:45:53.039Z,17.60
2018-02-07T11:48:21.751Z,19.60
2018-02-07T11:50:49.835Z,19.40
2018-02-07T11:53:17.354Z,21.30
2018-02-07T11:55:45.287Z,20.90
2018-02-07T11:58:13.190Z,20.83
2018-02-07T12:00:41.109Z,18.67
2018-02-07T12:03:08.610Z,23.73
2018-02-07T12:05:36.600Z,20.73
2018-02-07T12:08:04.141Z,21.70
2018-02-07T12:10:32.427Z,19.67
2018-02-07T12:13:00.726Z,20.23
2018-02-07T12:15:28.630Z,19.57
2018-02-07T12:17:56.558Z,15.23
2018-02-07T12:20:24.202Z,18.00
2018-02-07T12:22:51.734Z,19.70
2018-02-07T12:25:20.006Z,20.13
2018-02-07T12:27:47.941Z,24.40
2018-02-07T12:30:16.218Z,19.30
2018-02-07T12:32:44.140Z,22.20
2018-02-07T12:35:11.647Z,21.10
2018-02-07T12:37:39.570Z,18.00
2018-02-07T12:40:07.078Z,21.10
2018-02-07T12:42:35.415Z,19.30
2018-02-07T12:45:03.324Z,24.17
2018-02-07T12:47:31.319Z,17.53
2018-02-07T12:49:58.833Z,19.23
2018-02-07T12:52:26.805Z,15.87
2018-02-07T12:54:54.327Z,19.83
2018-02-07T12:57:21.826Z,17.10
2018-02-07T12:59:49.376Z,20.07
2018-02-07T13:02:17.287Z,16.93
2018-02-07T13:04:45.209Z,17.40
2018-02-07T13:07:13.122Z,19.93
2018-02-07T13:09:40.652Z,20.43
2018-02-07T13:12:08.168Z,18.93
2018-02-07T13:14:36.086Z,19.77
2018-02-07T13:17:04.007Z,18.67
2018-02-07T13:19:31.543Z,18.57
2018-02-07T13:21:59.467Z,20.17
2018-02-07T13:24:27.579Z,16.60
2018-02-07T13:26:55.093Z,18.47
2018-02-07T13:29:23.027Z,21.37
2018-02-07T13:31:51.297Z,16.17
2018-02-07T13:34:19.213Z,16.73
2018-02-07T13:36:47.123Z,17.60
2018-02-07T13:39:15.410Z,14.70
2018-02-07T13:41:43.312Z,16.30
2018-02-07T13:44:10.847Z,17.57
2018-02-07T13:46:38.366Z,15.83
2018-02-07T13:49:06.063Z,15.27
2018-02-07T13:51:33.601Z,19.83
2018-02-07T13:54:01.902Z,17.77
2018-02-07T13:56:29.443Z,16.00
2018-02-07T13:58:57.031Z,17.47
2018-02-07T14:01:24.578Z,17.67
2018-02-07T14:03:52.490Z,14.63
2018-02-07T14:06:20.415Z,16.13
2018-02-07T14:08:47.922Z,16.47
2018-02-07T14:11:15.846Z,16.97
2018-02-07T14:13:43.646Z,15.03
2018-02-07T14:16:11.174Z,18.80
2018-02-07T14:18:38.687Z,16.47
2018-02-07T14:21:06.215Z,17.10
2018-02-07T14:23:33.719Z,18.17
2018-02-07T14:26:01.238Z,16.53
2018-02-07T14:28:29.139Z,13.53
2018-02-07T14:30:56.669Z,16.03
2018-02-07T14:33:24.190Z,15.07
2018-02-07T14:35:52.126Z,16.60
2018-02-07T14:38:21.394Z,18.07
2018-02-07T14:40:48.918Z,17.90
2018-02-07T14:43:16.453Z,16.17
2018-02-07T14:45:44.386Z,17.83
2018-02-07T14:48:11.894Z,16.80
2018-02-07T14:50:39.819Z,17.70
2018-02-07T14:53:07.388Z,16.20
2018-02-07T14:55:34.959Z,17.13
2018-02-07T14:58:02.865Z,15.40
2018-02-07T15:00:30.378Z,18.93
2018-02-07T15:02:58.307Z,15.10
2018-02-07T15:05:25.812Z,15.07
2018-02-07T15:07:53.747Z,17.93
2018-02-07T15:10:21.269Z,15.67
2018-02-07T15:12:49.582Z,16.77
2018-02-07T15:15:17.482Z,16.53
2018-02-07T15:17:45.406Z,15.83
2018-02-07T15:20:12.915Z,14.07
2018-02-07T15:22:40.842Z,15.40
2018-02-07T15:25:08.746Z,16.17
2018-02-07T15:27:36.669Z,17.70
2018-02-07T15:30:04.583Z,15.07
2018-02-07T15:32:32.143Z,13.00
2018-02-07T15:35:00.039Z,14.23
2018-02-07T15:37:27.591Z,14.17
2018-02-07T15:39:55.489Z,17.43
2018-02-07T15:42:23.407Z,14.60
2018-02-07T15:44:51.679Z,11.93
2018-02-07T15:47:19.243Z,12.70
2018-02-07T15:49:46.763Z,15.43
2018-02-07T15:52:14.666Z,15.67
2018-02-07T15:54:42.592Z,14.00
2018-02-07T15:57:10.098Z,17.10
2018-02-07T15:59:38.023Z,15.13
2018-02-07T16:02:05.926Z,15.10
2018-02-07T16:04:33.862Z,15.87
2018-02-07T16:07:01.379Z,18.43
2018-02-07T16:09:29.311Z,15.40
2018-02-07T16:11:58.174Z,16.97
2018-02-07T16:14:25.708Z,15.60
2018-02-07T16:16:53.614Z,19.93
2018-02-07T16:19:21.163Z,18.03
2018-02-07T16:21:48.718Z,21.50
2018-02-07T16:24:16.646Z,16.03
2018-02-07T16:26:44.546Z,15.37
2018-02-07T16:29:12.084Z,21.87
2018-02-07T16:31:39.598Z,17.13
2018-02-07T16:34:07.532Z,15.93
2018-02-07T16:36:35.083Z,17.73
2018-02-07T16:39:03.047Z,15.83
2018-02-07T16:41:30.772Z,16.67
2018-02-07T16:43:59.044Z,19.17
2018-02-07T16:46:26.570Z,16.47
2018-02-07T16:48:54.471Z,19.73
2018-02-07T16:51:21.999Z,14.67
2018-02-07T16:53:49.518Z,18.33
2018-02-07T16:56:17.047Z,15.37
2018-02-07T16:58:44.560Z,14.47
2018-02-07T17:01:12.491Z,15.43
2018-02-07T17:03:40.016Z,19.47
2018-02-07T17:06:08.310Z,13.40
2018-02-07T17:08:35.819Z,16.10
2018-02-07T17:11:03.362Z,14.03
2018-02-07T17:13:31.625Z,15.73
2018-02-07T17:16:03.581Z,17.63
2018-02-07T17:18:31.199Z,14.37
2018-02-07T17:20:59.130Z,15.23
2018-02-07T17:23:26.642Z,15.93
2018-02-07T17:25:54.575Z,13.43
2018-02-07T17:28:22.083Z,17.60
2018-02-07T17:30:50.004Z,14.00
2018-02-07T17:33:17.914Z,17.87
2018-02-07T17:35:46.222Z,17.13
2018-02-07T17:38:13.719Z,16.40
2018-02-07T17:40:42.782Z,18.93
2018-02-07T17:43:10.295Z,14.43
2018-02-07T17:45:38.575Z,15.27
2018-02-07T17:48:06.503Z,15.40
2018-02-07T17:50:34.782Z,16.87
2018-02-07T17:53:02.700Z,18.10
2018-02-07T17:55:30.207Z,15.67
2018-02-07T17:57:57.822Z,16.90
2018-02-07T18:00:26.110Z,16.33
2018-02-07T18:02:53.641Z,17.80
2018-02-07T18:05:21.551Z,15.13
2018-02-07T18:07:49.083Z,19.07
2018-02-07T18:10:16.591Z,15.47
2018-02-07T18:12:44.519Z,20.13
2018-02-07T18:15:12.026Z,15.70
2018-02-07T18:17:40.413Z,18.93
2018-02-07T18:20:08.311Z,15.40
2018-02-07T18:22:35.832Z,17.13
2018-02-07T18:25:03.349Z,16.33
2018-02-07T18:27:30.907Z,16.83
2018-02-07T18:29:58.410Z,16.23
2018-02-07T18:32:26.338Z,18.47
2018-02-07T18:34:53.843Z,15.80
2018-02-07T18:37:22.734Z,18.80
2018-02-07T18:39:50.247Z,14.87
2018-02-07T18:42:17.780Z,19.10
2018-02-07T18:44:45.290Z,16.10
2018-02-07T18:47:12.823Z,19.43
2018-02-07T18:49:40.738Z,16.67
2018-02-07T18:52:08.631Z,18.13
2018-02-07T18:54:36.158Z,15.20
2018-02-07T18:57:04.058Z,16.10
2018-02-07T18:59:31.582Z,16.33
2018-02-07T19:01:59.479Z,17.10
2018-02-07T19:04:27.011Z,19.00
2018-02-07T19:06:54.566Z,16.77
2018-02-07T19:09:22.082Z,16.67
2018-02-07T19:11:49.994Z,18.80
2018-02-07T19:14:17.925Z,15.60
2018-02-07T19:16:45.447Z,15.67
2018-02-07T19:19:12.974Z,15.30
2018-02-07T19:21:40.880Z,16.33
2018-02-07T19:24:08.802Z,16.80
2018-02-07T19:26:36.711Z,17.73
2018-02-07T19:29:04.238Z,16.63
2018-02-07T19:31:31.749Z,20.10
2018-02-07T19:33:59.314Z,18.57
2018-02-07T19:36:26.924Z,21.63
2018-02-07T19:38:54.847Z,19.13
2018-02-07T19:41:23.158Z,20.10
2018-02-07T19:43:50.678Z,15.60
2018-02-07T19:46:18.590Z,18.80
2018-02-07T19:48:46.178Z,19.17
2018-02-07T19:51:13.706Z,17.13
2018-02-07T19:53:42.570Z,18.03
2018-02-07T19:56:10.107Z,17.20
2018-02-07T19:58:38.023Z,18.13
2018-02-07T20:01:05.542Z,18.37
2018-02-07T20:03:33.451Z,17.17
2018-02-07T20:06:00.975Z,16.37
2018-02-07T20:08:28.879Z,17.40
2018-02-07T20:10:56.810Z,20.33
2018-02-07T20:13:24.715Z,16.97
2018-02-07T20:15:52.234Z,18.00
2018-02-07T20:18:19.741Z,15.10
2018-02-07T20:20:47.868Z,16.80
2018-02-07T20:23:15.379Z,14.60
2018-02-07T20:25:43.299Z,15.10
2018-02-07T20:28:10.810Z,17.37
2018-02-07T20:30:38.336Z,16.10
2018-02-07T20:33:05.838Z,15.97
2018-02-07T20:35:34.137Z,15.83
2018-02-07T20:38:01.654Z,16.07
2018-02-07T20:40:29.198Z,16.23
2018-02-07T20:42:57.462Z,15.80
2018-02-07T20:45:25.409Z,20.23
2018-02-07T20:47:52.995Z,17.17
2018-02-07T20:50:20.522Z,16.73
2018-02-07T20:52:48.059Z,18.60
2018-02-07T20:55:15.566Z,17.17
2018-02-07T20:57:43.509Z,17.53
2018-02-07T21:00:11.015Z,15.87
2018-02-07T21:02:38.984Z,17.63
2018-02-07T21:05:06.502Z,15.97
2018-02-07T21:07:34.043Z,17.03
2018-02-07T21:10:02.467Z,17.27
2018-02-07T21:12:29.991Z,17.07
2018-02-07T21:14:57.886Z,19.63
2018-02-07T21:17:25.427Z,18.20
2018-02-07T21:19:53.493Z,16.77
2018-02-07T21:22:21.024Z,16.50
2018-02-07T21:24:48.925Z,15.03
2018-02-07T21:27:16.449Z,16.67
2018-02-07T21:29:43.960Z,16.70
2018-02-07T21:32:11.907Z,18.00
2018-02-07T21:34:39.426Z,17.37
2018-02-07T21:37:07.355Z,19.07
2018-02-07T21:39:34.963Z,15.83
2018-02-07T21:42:02.480Z,14.97
2018-02-07T21:44:30.456Z,15.67
2018-02-07T21:46:58.733Z,19.63
2018-02-07T21:49:26.266Z,16.43
2018-02-07T21:51:53.778Z,17.90
2018-02-07T21:54:20.037Z,20.27
2018-02-07T21:56:46.668Z,16.70
2018-02-07T21:59:13.654Z,18.40
2018-02-07T22:01:40.261Z,16.40
2018-02-07T22:04:06.519Z,15.67
2018-02-07T22:06:33.107Z,14.43
2018-02-07T22:08:59.350Z,15.80
2018-02-07T22:11:25.947Z,16.47
2018-02-07T22:13:52.569Z,17.03
2018-02-07T22:16:18.799Z,14.63
2018-02-07T22:18:46.761Z,16.43
2018-02-07T22:21:13.397Z,16.73
2018-02-07T22:23:40.342Z,16.80
2018-02-07T22:26:06.574Z,15.83
2018-02-07T22:28:33.170Z,16.97
2018-02-07T22:31:00.253Z,17.60
2018-02-07T22:33:26.498Z,18.77
2018-02-07T22:35:53.836Z,18.50
2018-02-07T22:38:21.186Z,20.37
2018-02-07T22:40:47.419Z,17.47
2018-02-07T22:43:13.621Z,19.97
2018-02-07T22:45:39.847Z,17.63
2018-02-07T22:48:06.448Z,20.27
2018-02-07T22:50:32.675Z,19.37
2018-02-07T22:52:58.900Z,22.23
2018-02-07T22:55:25.120Z,15.87
2018-02-07T22:57:51.713Z,17.40
2018-02-07T23:00:17.966Z,15.40
2018-02-07T23:02:44.570Z,16.60
2018-02-07T23:05:10.776Z,17.07
2018-02-07T23:07:37.027Z,18.53
2018-02-07T23:10:04.007Z,16.00
2018-02-07T23:12:30.623Z,16.50
2018-02-07T23:14:57.235Z,18.33
2018-02-07T23:17:23.483Z,16.90
2018-02-07T23:19:50.066Z,17.30
2018-02-07T23:22:16.298Z,19.07
2018-02-07T23:24:42.507Z,17.50
2018-02-07T23:27:10.465Z,17.00
2018-02-07T23:29:36.693Z,16.87
2018-02-07T23:32:02.934Z,16.47
2018-02-07T23:34:29.161Z,20.90
2018-02-07T23:36:55.448Z,16.33
2018-02-07T23:39:22.407Z,16.53
2018-02-07T23:41:48.622Z,16.63
2018-02-07T23:44:15.217Z,20.00
2018-02-07T23:46:41.420Z,16.23
2018-02-07T23:49:07.650Z,20.90
2018-02-07T23:51:33.872Z,15.87
2018-02-07T23:54:00.107Z,20.60
2018-02-07T23:56:27.075Z,19.17
2018-02-07T23:58:53.451Z,16.37
